Time;durP1;ratioP1;P1;durP2;ratioP2;P2;SDS_P1;SDS_P2;PMS_P1;PMS_P2;Temp;Humidity;BMP_temperature;BMP_pressure;BME280_temperature;BME280_humidity;BME280_pressure;Samples;Min_cycle;Max_cycle;Signal;HPM_P1;HPM_P2
2023/06/26 00:02:12;;;;;;;10.32;8.13;;;;;;;-148.88;92.04;-17125.47;5034464;28;20021;-71
2023/06/26 00:04:37;;;;;;;11.65;7.60;;;;;;;-148.88;92.87;-17125.47;5034741;28;20391;-71
2023/06/26 00:07:04;;;;;;;8.95;7.38;;;;;;;-148.88;92.73;-17125.47;5034633;28;20568;-72
2023/06/26 00:09:29;;;;;;;10.30;7.15;;;;;;;-148.88;92.42;-17125.47;5034761;28;20040;-72
2023/06/26 00:11:55;;;;;;;8.82;7.47;;;;;;;-148.88;93.49;-17125.47;5016667;28;20025;-72
2023/06/26 00:14:20;;;;;;;8.75;7.18;;;;;;;-148.88;92.90;-17125.47;5034358;28;20061;-72
2023/06/26 00:16:46;;;;;;;8.68;7.53;;;;;;;-148.88;93.27;-17125.47;5034309;28;20021;-72
2023/06/26 00:19:12;;;;;;;8.68;7.70;;;;;;;-148.88;93.43;-17125.47;5034372;28;20463;-72
2023/06/26 00:21:37;;;;;;;10.50;7.72;;;;;;;-148.88;93.22;-17125.47;5034735;28;20030;-72
2023/06/26 00:24:03;;;;;;;8.00;7.18;;;;;;;-148.88;93.47;-17125.47;5020930;28;20100;-72
2023/06/26 00:26:28;;;;;;;8.48;7.20;;;;;;;-148.88;93.64;-17125.47;5016320;28;20036;-72
2023/06/26 00:28:54;;;;;;;8.00;7.20;;;;;;;-148.88;93.38;-17125.47;5034096;28;20014;-71
2023/06/26 00:31:19;;;;;;;10.23;7.53;;;;;;;-148.88;93.50;-17125.47;5016165;28;20444;-71
2023/06/26 00:33:44;;;;;;;10.02;7.70;;;;;;;-148.88;93.88;-17125.47;5033670;28;20025;-71
2023/06/26 00:36:10;;;;;;;8.70;7.00;;;;;;;-148.88;93.91;-17125.47;5033809;28;20022;-71
2023/06/26 00:38:35;;;;;;;8.95;7.70;;;;;;;-148.88;93.80;-17125.47;5033215;28;20018;-72
2023/06/26 00:41:00;;;;;;;10.02;7.50;;;;;;;-148.88;94.29;-17125.47;5016098;28;20030;-72
2023/06/26 00:43:26;;;;;;;10.02;7.82;;;;;;;-148.88;94.41;-17125.47;5033527;28;20028;-72
2023/06/26 00:45:51;;;;;;;9.38;7.65;;;;;;;-148.88;94.49;-17125.47;5033629;28;20056;-72
2023/06/26 00:48:17;;;;;;;9.02;7.70;;;;;;;-148.88;94.96;-17125.47;5033509;28;20026;-72
2023/06/26 00:50:43;;;;;;;9.45;7.55;;;;;;;-148.88;94.90;-17125.47;5033554;28;20021;-72
2023/06/26 00:53:10;;;;;;;8.55;7.53;;;;;;;-148.88;95.00;-17125.47;5033533;28;20397;-72
2023/06/26 00:55:36;;;;;;;8.80;7.90;;;;;;;-148.88;95.28;-17125.47;5033412;28;20025;-72
2023/06/26 00:58:02;;;;;;;9.38;8.38;;;;;;;-148.88;95.45;-17125.47;5015770;28;20029;-72
2023/06/26 01:00:27;;;;;;;8.95;7.47;;;;;;;-148.88;95.47;-17125.47;5033214;28;20025;-72
2023/06/26 01:02:53;;;;;;;9.95;7.93;;;;;;;-148.88;95.57;-17125.47;5015862;28;20025;-72
2023/06/26 01:05:20;;;;;;;9.38;7.85;;;;;;;-148.88;95.47;-17125.47;5033380;28;20454;-71
2023/06/26 01:07:49;;;;;;;11.10;8.30;;;;;;;-148.88;95.99;-17125.47;5033451;28;20052;-71
2023/06/26 01:10:15;;;;;;;10.68;7.78;;;;;;;-148.88;96.34;-17125.47;5033494;28;20025;-71
2023/06/26 01:12:41;;;;;;;9.70;7.90;;;;;;;-148.88;96.48;-17125.47;5015063;28;20499;-71
2023/06/26 01:15:07;;;;;;;10.18;7.65;;;;;;;-148.88;96.69;-17125.47;5033287;28;20022;-71
2023/06/26 01:17:34;;;;;;;8.93;8.02;;;;;;;-148.88;97.11;-17125.47;5033015;28;20156;-72
2023/06/26 01:20:01;;;;;;;12.00;8.45;;;;;;;-148.88;97.50;-17125.47;5032949;28;20107;-72
2023/06/26 01:22:57;;;;;;;9.80;8.77;;;;;;;-148.88;97.87;-17125.47;5032987;28;20040;-72
2023/06/26 01:25:38;;;;;;;10.68;7.80;;;;;;;-148.88;97.44;-17125.47;5033050;28;20025;-72
2023/06/26 01:28:05;;;;;;;10.38;8.02;;;;;;;-148.88;97.58;-17125.47;5032979;28;20105;-72
2023/06/26 01:30:32;;;;;;;9.05;8.07;;;;;;;-148.88;97.10;-17125.47;5032904;28;20057;-71
2023/06/26 01:32:58;;;;;;;9.30;8.20;;;;;;;-148.88;97.26;-17125.47;5032788;28;20025;-72
2023/06/26 01:35:24;;;;;;;9.10;8.13;;;;;;;-148.88;97.10;-17125.47;5032854;28;20499;-71
2023/06/26 01:37:50;;;;;;;9.35;8.30;;;;;;;-148.88;97.37;-17125.47;5032891;28;20060;-71
2023/06/26 01:40:15;;;;;;;9.60;8.23;;;;;;;-148.88;97.38;-17125.47;5032889;28;20127;-71
2023/06/26 01:42:40;;;;;;;9.77;8.07;;;;;;;-148.88;97.89;-17125.47;5032990;28;20025;-72
2023/06/26 01:45:25;;;;;;;8.63;7.82;;;;;;;-148.88;98.21;-17125.47;5032621;28;20021;-71
2023/06/26 01:47:52;;;;;;;9.93;8.30;;;;;;;-148.88;97.75;-17125.47;5032872;28;20029;-72
2023/06/26 01:50:24;;;;;;;9.45;8.43;;;;;;;-148.88;98.00;-17125.47;5035618;28;20040;-71
2023/06/26 01:53:10;;;;;;;9.80;8.20;;;;;;;-148.88;98.17;-17125.47;5036901;28;20526;-71
2023/06/26 01:55:47;;;;;;;9.88;8.05;;;;;;;-148.88;98.19;-17125.47;5037016;28;20025;-72
2023/06/26 01:58:14;;;;;;;8.43;7.63;;;;;;;-148.88;98.31;-17125.47;5036932;28;20537;-73
2023/06/26 02:00:40;;;;;;;9.82;8.40;;;;;;;-148.88;98.41;-17125.47;5019099;28;20139;-71
2023/06/26 02:03:06;;;;;;;10.35;9.07;;;;;;;-148.88;98.53;-17125.47;5037117;28;20127;-72
2023/06/26 02:05:32;;;;;;;9.55;8.00;;;;;;;-148.88;99.01;-17125.47;5018807;28;20036;-72
2023/06/26 02:07:57;;;;;;;9.98;8.55;;;;;;;-148.88;99.34;-17125.47;5036762;28;20026;-72
2023/06/26 02:10:22;;;;;;;10.93;9.02;;;;;;;-148.88;99.72;-17125.47;5037063;28;20041;-73
2023/06/26 02:12:48;;;;;;;10.65;9.18;;;;;;;-148.88;99.83;-17125.47;5036793;28;20029;-72
2023/06/26 02:15:13;;;;;;;10.18;8.68;;;;;;;-148.88;99.93;-17125.47;5036421;28;20033;-72
2023/06/26 02:17:38;;;;;;;11.60;8.65;;;;;;;-148.88;100.00;-17125.47;5036464;28;20028;-72
2023/06/26 02:20:05;;;;;;;10.30;8.40;;;;;;;-148.88;100.00;-17125.47;5036316;28;20119;-72
2023/06/26 02:22:31;;;;;;;9.40;8.38;;;;;;;-148.88;100.00;-17125.47;5036159;28;20021;-72
2023/06/26 02:24:56;;;;;;;9.77;7.95;;;;;;;-148.88;100.00;-17125.47;5036444;28;20036;-71
2023/06/26 02:27:21;;;;;;;9.65;8.23;;;;;;;-148.88;100.00;-17125.47;5036035;28;20184;-71
2023/06/26 02:29:47;;;;;;;10.05;8.35;;;;;;;-148.88;100.00;-17125.47;5036121;28;20028;-72
2023/06/26 02:32:12;;;;;;;9.30;8.07;;;;;;;-148.88;100.00;-17125.47;5018316;28;20461;-72
2023/06/26 02:34:38;;;;;;;10.90;8.40;;;;;;;-148.88;100.00;-17125.47;5036122;28;20044;-72
2023/06/26 02:37:03;;;;;;;9.60;8.60;;;;;;;-148.88;100.00;-17125.47;5036210;28;20017;-72
2023/06/26 02:39:29;;;;;;;9.48;8.52;;;;;;;-148.88;100.00;-17125.47;5036422;28;20484;-72
2023/06/26 02:41:54;;;;;;;9.68;7.72;;;;;;;-148.88;100.00;-17125.47;5036628;28;20029;-72
2023/06/26 02:44:21;;;;;;;10.35;8.30;;;;;;;-148.88;100.00;-17125.47;5018492;28;20033;-72
2023/06/26 02:46:46;;;;;;;9.38;8.40;;;;;;;-148.88;100.00;-17125.47;5035679;28;20112;-72
2023/06/26 02:49:11;;;;;;;12.32;8.57;;;;;;;-148.88;100.00;-17125.47;5035607;28;20056;-72
2023/06/26 02:51:38;;;;;;;10.77;8.50;;;;;;;-148.88;100.00;-17125.47;5035620;28;20018;-71
2023/06/26 02:54:03;;;;;;;10.23;8.07;;;;;;;-148.88;100.00;-17125.47;5018011;28;20053;-72
2023/06/26 02:56:28;;;;;;;9.88;8.25;;;;;;;-148.88;100.00;-17125.47;5035350;28;20049;-72
2023/06/26 02:58:58;;;;;;;10.68;8.25;;;;;;;-148.88;100.00;-17125.47;5035357;28;20018;-71
2023/06/26 03:01:23;;;;;;;9.15;8.10;;;;;;;-148.88;100.00;-17125.47;5035419;28;20040;-71
2023/06/26 03:03:49;;;;;;;9.13;8.23;;;;;;;-148.88;100.00;-17125.47;5017433;28;20022;-71
2023/06/26 03:06:15;;;;;;;10.32;8.35;;;;;;;-148.88;100.00;-17125.47;5035280;28;20030;-71
2023/06/26 03:08:40;;;;;;;10.18;8.38;;;;;;;-148.88;100.00;-17125.47;5035386;28;20032;-72
2023/06/26 03:11:07;;;;;;;10.70;8.52;;;;;;;-148.88;100.00;-17125.47;5017415;28;20384;-72
2023/06/26 03:13:36;;;;;;;10.25;8.65;;;;;;;-148.88;100.00;-17125.47;5035059;28;20032;-72
2023/06/26 03:16:02;;;;;;;11.88;7.93;;;;;;;-148.88;100.00;-17125.47;5035168;28;20388;-71
2023/06/26 03:18:28;;;;;;;9.10;8.18;;;;;;;-148.88;100.00;-17125.47;5017524;28;20027;-72
2023/06/26 03:20:56;;;;;;;11.68;8.48;;;;;;;-148.88;100.00;-17125.47;5035211;28;20028;-72
2023/06/26 03:23:23;;;;;;;10.40;8.68;;;;;;;-148.88;100.00;-17125.47;5035553;28;20365;-71
2023/06/26 03:25:48;;;;;;;10.85;8.27;;;;;;;-148.88;100.00;-17125.47;5017225;28;20030;-72
2023/06/26 03:28:14;;;;;;;11.60;8.23;;;;;;;-148.88;100.00;-17125.47;5035321;28;20022;-72
2023/06/26 03:30:39;;;;;;;11.68;8.45;;;;;;;-148.88;100.00;-17125.47;5035096;28;20029;-72
2023/06/26 03:33:05;;;;;;;12.15;8.90;;;;;;;-148.88;100.00;-17125.47;5034920;28;20025;-72
2023/06/26 03:35:30;;;;;;;9.60;8.25;;;;;;;-148.88;100.00;-17125.47;5035200;28;20018;-71
2023/06/26 03:37:55;;;;;;;10.32;8.68;;;;;;;-148.88;100.00;-17125.47;5035090;28;20427;-71
2023/06/26 03:40:21;;;;;;;9.65;8.20;;;;;;;-148.88;100.00;-17125.47;5035010;28;20104;-71
2023/06/26 03:42:46;;;;;;;11.20;8.93;;;;;;;-148.88;100.00;-17125.47;5035157;28;20032;-71
2023/06/26 03:45:11;;;;;;;10.32;8.15;;;;;;;-148.88;100.00;-17125.47;5034869;28;20047;-71
2023/06/26 03:47:37;;;;;;;9.40;7.97;;;;;;;-148.88;100.00;-17125.47;5017117;28;20017;-72
2023/06/26 03:50:03;;;;;;;9.65;8.38;;;;;;;-148.88;100.00;-17125.47;5034671;28;20033;-72
2023/06/26 03:52:30;;;;;;;11.35;8.77;;;;;;;-148.88;100.00;-17125.47;5034485;28;20033;-71
2023/06/26 03:54:57;;;;;;;10.93;8.80;;;;;;;-148.88;100.00;-17125.47;5016895;28;20112;-73
2023/06/26 03:57:22;;;;;;;10.88;8.88;;;;;;;-148.88;100.00;-17125.47;5034586;28;20032;-73
2023/06/26 03:59:47;;;;;;;10.18;8.18;;;;;;;-148.88;100.00;-17125.47;5034804;28;20018;-73
2023/06/26 04:02:13;;;;;;;10.82;8.48;;;;;;;-148.88;100.00;-17125.47;5034547;28;20057;-72
2023/06/26 04:04:38;;;;;;;10.80;8.57;;;;;;;-148.88;100.00;-17125.47;5034477;28;20538;-72
2023/06/26 04:07:04;;;;;;;10.80;8.30;;;;;;;-148.88;100.00;-17125.47;5016568;28;20028;-72
2023/06/26 04:09:29;;;;;;;14.30;8.55;;;;;;;-148.88;100.00;-17125.47;5034056;28;20013;-72
2023/06/26 04:11:55;;;;;;;10.60;8.40;;;;;;;-148.88;100.00;-17125.47;5033474;28;20024;-72
2023/06/26 04:14:22;;;;;;;14.00;8.77;;;;;;;-148.88;100.00;-17125.47;5033689;28;20606;-72
2023/06/26 04:16:48;;;;;;;9.23;8.07;;;;;;;-148.88;100.00;-17125.47;5033673;28;20029;-72
2023/06/26 04:19:13;;;;;;;10.73;8.38;;;;;;;-148.88;100.00;-17125.47;5033977;28;20025;-72
2023/06/26 04:21:39;;;;;;;9.68;8.68;;;;;;;-148.88;100.00;-17125.47;5033564;28;20025;-72
2023/06/26 04:24:05;;;;;;;9.55;8.15;;;;;;;-148.88;100.00;-17125.47;5033561;28;20511;-72
2023/06/26 04:26:30;;;;;;;11.02;8.02;;;;;;;-148.88;100.00;-17125.47;5033533;28;20113;-72
2023/06/26 04:28:55;;;;;;;9.55;8.38;;;;;;;-148.88;100.00;-17125.47;5033585;28;20100;-72
2023/06/26 04:31:22;;;;;;;11.60;8.18;;;;;;;-148.88;100.00;-17125.47;5033666;28;20047;-73
2023/06/26 04:33:50;;;;;;;9.48;7.78;;;;;;;-148.88;100.00;-17125.47;5034270;28;20027;-73
2023/06/26 04:36:17;;;;;;;8.75;7.85;;;;;;;-148.88;100.00;-17125.47;5033588;28;20021;-73
2023/06/26 04:38:42;;;;;;;8.65;7.75;;;;;;;-148.88;99.90;-17125.47;5033324;28;20021;-73
2023/06/26 04:41:07;;;;;;;11.23;8.18;;;;;;;-148.88;100.00;-17125.47;5015606;28;20411;-72
2023/06/26 04:43:33;;;;;;;10.25;7.95;;;;;;;-148.88;100.00;-17125.47;5033508;28;20029;-72
2023/06/26 04:45:58;;;;;;;8.73;7.80;;;;;;;-148.88;100.00;-17125.47;5033474;28;20429;-72
2023/06/26 04:48:24;;;;;;;9.57;7.95;;;;;;;-148.88;100.00;-17125.47;5033232;28;20448;-72
2023/06/26 04:50:53;;;;;;;9.00;7.65;;;;;;;-148.88;100.00;-17125.47;5033226;28;20025;-72
2023/06/26 04:53:22;;;;;;;10.40;7.90;;;;;;;-148.88;100.00;-17125.47;5015424;28;20052;-72
2023/06/26 04:55:49;;;;;;;10.23;7.82;;;;;;;-148.88;100.00;-17125.47;5033384;28;20021;-72
2023/06/26 04:58:15;;;;;;;10.15;7.75;;;;;;;-148.88;99.77;-17125.47;5033126;28;20037;-73
2023/06/26 05:00:42;;;;;;;10.00;8.00;;;;;;;-148.88;100.00;-17125.47;5033226;28;20029;-72
2023/06/26 05:03:11;;;;;;;8.82;7.55;;;;;;;-148.88;100.00;-17125.47;5033732;28;20037;-72
2023/06/26 05:05:36;;;;;;;11.57;7.97;;;;;;;-148.88;100.00;-17125.47;5033308;28;20029;-72
2023/06/26 05:08:16;;;;;;;10.48;7.72;;;;;;;-148.88;99.23;-17125.47;5033470;28;20549;-72
2023/06/26 05:10:42;;;;;;;9.57;7.50;;;;;;;-148.88;98.75;-17125.47;5033648;28;20026;-73
2023/06/26 05:13:07;;;;;;;8.93;7.18;;;;;;;-148.88;98.17;-17125.47;5033434;28;20040;-72
2023/06/26 05:15:33;;;;;;;12.10;8.20;;;;;;;-148.88;97.78;-17125.47;5033017;28;20026;-73
2023/06/26 05:17:58;;;;;;;10.50;7.10;;;;;;;-148.88;97.14;-17125.47;5032978;28;20033;-73
2023/06/26 05:20:24;;;;;;;8.60;7.28;;;;;;;-148.88;95.43;-17125.47;5033008;28;20025;-72
2023/06/26 05:22:49;;;;;;;8.15;7.10;;;;;;;-148.88;96.13;-17125.47;5015253;28;20449;-72
2023/06/26 05:25:15;;;;;;;8.40;6.72;;;;;;;-148.88;94.29;-17125.47;5015238;28;20134;-72
2023/06/26 05:27:41;;;;;;;9.95;6.80;;;;;;;-148.88;92.07;-17125.47;5032819;28;20025;-72
2023/06/26 05:30:07;;;;;;;8.45;6.68;;;;;;;-148.88;88.07;-17125.47;5033393;28;20052;-72
2023/06/26 05:32:35;;;;;;;8.48;6.78;;;;;;;-148.88;87.66;-17125.47;5033408;28;20033;-72
2023/06/26 05:35:02;;;;;;;8.43;6.18;;;;;;;-148.88;85.50;-17125.47;5033150;28;20025;-72
2023/06/26 05:37:28;;;;;;;11.57;7.47;;;;;;;-148.88;84.19;-17125.47;5033018;28;20025;-72
2023/06/26 05:39:54;;;;;;;9.85;6.88;;;;;;;-148.88;81.86;-17125.47;5015326;28;20396;-72
2023/06/26 05:42:19;;;;;;;8.45;6.22;;;;;;;-148.88;77.99;-17125.47;5033157;28;20477;-72
2023/06/26 05:44:45;;;;;;;8.32;6.05;;;;;;;-148.88;77.29;-17125.47;5015446;28;20080;-73
2023/06/26 05:47:10;;;;;;;8.50;6.40;;;;;;;-148.88;77.55;-17125.47;5015142;28;20040;-72
2023/06/26 05:49:35;;;;;;;9.52;6.45;;;;;;;-148.88;76.77;-17125.47;5033437;28;20105;-72
2023/06/26 05:52:01;;;;;;;8.85;6.97;;;;;;;-148.88;75.98;-17125.47;5032844;28;20419;-72
2023/06/26 05:54:26;;;;;;;8.80;7.15;;;;;;;-148.88;75.97;-17125.47;5032646;28;20018;-72
2023/06/26 05:56:59;;;;;;;8.57;6.70;;;;;;;-148.88;74.78;-17125.47;5032597;28;20061;-72
2023/06/26 05:59:26;;;;;;;10.80;7.47;;;;;;;-148.88;73.94;-17125.47;5032413;28;20029;-72
2023/06/26 06:01:51;;;;;;;8.85;6.32;;;;;;;-148.88;75.59;-17125.47;5014795;28;20484;-72
2023/06/26 06:04:17;;;;;;;9.68;7.18;;;;;;;-148.88;76.04;-17125.47;5032620;28;20029;-72
2023/06/26 06:06:42;;;;;;;11.13;7.32;;;;;;;-148.88;74.90;-17125.47;5032295;28;20078;-72
2023/06/26 06:09:07;;;;;;;11.13;8.07;;;;;;;-148.88;75.45;-17125.47;5032344;28;20037;-72
2023/06/26 06:11:33;;;;;;;9.00;7.47;;;;;;;-148.88;76.37;-17125.47;5032347;28;20037;-72
2023/06/26 06:13:59;;;;;;;9.20;7.72;;;;;;;-148.88;76.63;-17125.47;5032241;28;20433;-71
2023/06/26 06:16:25;;;;;;;9.90;7.13;;;;;;;-148.88;78.01;-17125.47;5032328;28;20404;-71
2023/06/26 06:18:50;;;;;;;10.75;7.78;;;;;;;-148.88;78.41;-17125.47;5032450;28;20573;-72
2023/06/26 06:21:16;;;;;;;11.15;7.90;;;;;;;-148.88;78.33;-17125.47;5032692;28;20503;-72
2023/06/26 06:23:41;;;;;;;8.85;7.95;;;;;;;-148.88;80.55;-17125.47;5032610;28;20480;-72
2023/06/26 06:26:06;;;;;;;17.00;9.10;;;;;;;-148.88;78.58;-17125.47;5033269;28;20017;-72
2023/06/26 06:28:32;;;;;;;16.02;9.32;;;;;;;-148.88;78.84;-17125.47;5032436;28;20115;-73
2023/06/26 06:30:57;;;;;;;10.90;8.73;;;;;;;-148.88;80.28;-17125.47;5032768;28;20028;-72
2023/06/26 06:33:23;;;;;;;12.60;9.05;;;;;;;-148.88;79.40;-17125.47;5032691;28;20029;-72
2023/06/26 06:35:48;;;;;;;12.93;8.90;;;;;;;-148.88;78.99;-17125.47;5016421;28;20400;-72
2023/06/26 06:38:13;;;;;;;11.35;9.43;;;;;;;-148.88;80.82;-17125.47;5036120;28;20503;-72
2023/06/26 06:40:39;;;;;;;11.63;9.10;;;;;;;-148.88;80.18;-17125.47;5018046;28;20485;-72
2023/06/26 06:43:04;;;;;;;11.50;9.80;;;;;;;-148.88;79.88;-17125.47;5017955;28;20444;-72
2023/06/26 06:45:30;;;;;;;12.10;9.77;;;;;;;-148.88;79.59;-17125.47;5018261;28;20552;-72
2023/06/26 06:47:55;;;;;;;13.15;9.63;;;;;;;-148.88;79.51;-17125.47;5035799;28;20515;-72
2023/06/26 06:50:21;;;;;;;12.23;9.85;;;;;;;-148.88;80.98;-17125.47;5035933;28;20079;-72
2023/06/26 06:52:46;;;;;;;14.88;10.57;;;;;;;-148.88;81.32;-17125.47;5035750;28;20036;-72
2023/06/26 06:55:11;;;;;;;12.63;10.82;;;;;;;-148.88;82.10;-17125.47;5035940;28;20056;-73
2023/06/26 06:57:38;;;;;;;14.30;10.90;;;;;;;-148.88;83.94;-17125.47;5036131;28;20026;-72
2023/06/26 07:00:12;;;;;;;14.82;11.27;;;;;;;-148.88;83.43;-17125.47;5036758;28;20022;-72
2023/06/26 07:02:38;;;;;;;;;;;;;;;-148.88;84.14;-17125.47;5038414;28;20103;-72
2023/06/26 07:05:04;;;;;;;13.82;10.70;;;;;;;-148.88;83.74;-17125.47;5036881;28;20368;-72
2023/06/26 07:07:32;;;;;;;13.35;11.00;;;;;;;-148.88;83.78;-17125.47;5036537;28;20033;-72
2023/06/26 07:10:03;;;;;;;14.70;10.85;;;;;;;-148.88;82.96;-17125.47;5018262;28;20091;-72
2023/06/26 07:12:28;;;;;;;12.73;10.68;;;;;;;-148.88;82.74;-17125.47;5035607;28;20032;-72
2023/06/26 07:14:54;;;;;;;16.75;10.75;;;;;;;-148.88;83.54;-17125.47;5035115;28;20037;-72
2023/06/26 07:17:20;;;;;;;13.88;10.68;;;;;;;-148.88;84.50;-17125.47;5017412;28;20032;-72
2023/06/26 07:19:46;;;;;;;13.07;11.18;;;;;;;-148.88;82.42;-17125.47;5035093;28;20508;-72
2023/06/26 07:22:11;;;;;;;12.75;10.65;;;;;;;-148.88;83.02;-17125.47;5035198;28;20025;-79
2023/06/26 07:24:37;;;;;;;16.10;11.15;;;;;;;-148.88;82.72;-17125.47;5035415;28;20080;-73
2023/06/26 07:27:02;;;;;;;12.65;10.55;;;;;;;-148.88;84.12;-17125.47;5035445;28;20044;-73
2023/06/26 07:29:28;;;;;;;13.77;10.60;;;;;;;-148.88;85.81;-17125.47;5035327;28;20022;-73
2023/06/26 07:31:53;;;;;;;15.90;10.60;;;;;;;-148.88;85.65;-17125.47;5035378;28;20041;-73
2023/06/26 07:34:19;;;;;;;12.35;10.25;;;;;;;-148.88;85.62;-17125.47;5036102;28;20025;-73
2023/06/26 07:36:44;;;;;;;15.63;10.18;;;;;;;-148.88;85.00;-17125.47;5035866;28;20392;-73
2023/06/26 07:39:10;;;;;;;14.43;10.43;;;;;;;-148.88;84.07;-17125.47;5036764;28;20057;-74
2023/06/26 07:41:35;;;;;;;12.40;10.18;;;;;;;-148.88;84.44;-17125.47;5036801;28;20028;-73
2023/06/26 07:44:00;;;;;;;13.93;10.85;;;;;;;-148.88;84.33;-17125.47;5017817;28;20480;-73
2023/06/26 07:46:26;;;;;;;13.40;11.10;;;;;;;-148.88;84.83;-17125.47;5034593;28;20022;-73
2023/06/26 07:48:51;;;;;;;13.43;11.05;;;;;;;-148.88;85.77;-17125.47;5017039;28;20445;-73
2023/06/26 07:51:17;;;;;;;12.98;10.00;;;;;;;-148.88;85.09;-17125.47;5035211;28;20427;-73
2023/06/26 07:53:42;;;;;;;12.75;10.15;;;;;;;-148.88;85.00;-17125.47;5034602;28;20025;-73
2023/06/26 07:56:07;;;;;;;14.35;10.60;;;;;;;-148.88;85.00;-17125.47;5034412;28;20488;-72
2023/06/26 07:58:33;;;;;;;12.50;9.93;;;;;;;-148.88;84.83;-17125.47;5034257;28;20151;-72
2023/06/26 08:00:58;;;;;;;11.77;9.82;;;;;;;-148.88;85.42;-17125.47;5034325;28;20463;-73
2023/06/26 08:03:23;;;;;;;12.68;9.65;;;;;;;-148.88;85.21;-17125.47;5034509;28;20040;-73
2023/06/26 08:05:49;;;;;;;13.20;10.13;;;;;;;-148.88;85.81;-17125.47;5034501;28;20416;-73
2023/06/26 08:08:14;;;;;;;14.02;10.32;;;;;;;-148.88;86.50;-17125.47;5034300;28;20049;-72
2023/06/26 08:10:41;;;;;;;14.30;10.10;;;;;;;-148.88;86.52;-17125.47;5034610;28;20053;-73
2023/06/26 08:13:06;;;;;;;13.70;10.27;;;;;;;-148.88;86.84;-17125.47;5034849;28;20080;-74
2023/06/26 08:15:32;;;;;;;13.05;10.00;;;;;;;-148.88;87.49;-17125.47;5017397;28;20029;-73
2023/06/26 08:17:57;;;;;;;13.20;9.05;;;;;;;-148.88;86.18;-17125.47;5035587;28;20032;-73
2023/06/26 08:20:23;;;;;;;14.50;9.57;;;;;;;-148.88;86.64;-17125.47;5035541;28;20399;-73
2023/06/26 08:22:51;;;;;;;17.13;8.95;;;;;;;-148.88;87.21;-17125.47;5035197;28;20018;-73
2023/06/26 08:25:16;;;;;;;12.13;8.88;;;;;;;-148.88;89.36;-17125.47;5034144;28;20492;-72
2023/06/26 08:27:42;;;;;;;12.27;8.60;;;;;;;-148.88;89.58;-17125.47;5033915;28;20075;-72
2023/06/26 08:30:08;;;;;;;16.77;8.60;;;;;;;-148.88;90.34;-17125.47;5033753;28;20492;-73
2023/06/26 08:32:33;;;;;;;10.95;8.23;;;;;;;-148.88;89.95;-17125.47;5015869;28;20028;-73
2023/06/26 08:34:58;;;;;;;9.95;7.88;;;;;;;-148.88;90.75;-17125.47;5033617;28;20090;-73
2023/06/26 08:37:24;;;;;;;15.70;8.85;;;;;;;-148.88;90.29;-17125.47;5033383;28;20017;-72
2023/06/26 08:39:49;;;;;;;12.13;8.48;;;;;;;-148.88;91.05;-17125.47;5033625;28;20029;-72
2023/06/26 08:42:15;;;;;;;12.30;8.73;;;;;;;-148.88;89.81;-17125.47;5015989;28;20017;-73
2023/06/26 08:44:40;;;;;;;15.05;9.18;;;;;;;-148.88;89.18;-17125.47;5033913;28;20048;-73
2023/06/26 08:47:06;;;;;;;14.02;8.75;;;;;;;-148.88;89.28;-17125.47;5034288;28;20075;-72
2023/06/26 08:49:43;;;;;;;11.75;8.35;;;;;;;-148.88;88.37;-17125.47;5035470;28;20037;-73
2023/06/26 08:52:23;;;;;;;16.20;8.70;;;;;;;-148.88;86.47;-17125.47;5035816;28;20029;-72
2023/06/26 08:54:55;;;;;;;10.73;7.88;;;;;;;-148.88;87.48;-17125.47;5036395;28;20510;-72
2023/06/26 08:57:23;;;;;;;11.98;7.88;;;;;;;-148.88;87.01;-17125.47;5017230;28;20021;-73
2023/06/26 08:59:49;;;;;;;12.77;8.55;;;;;;;-148.88;86.39;-17125.47;5034220;28;20037;-72
2023/06/26 09:02:15;;;;;;;14.10;8.18;;;;;;;-148.88;86.38;-17125.47;5033894;28;20454;-72
2023/06/26 09:04:41;;;;;;;10.60;7.45;;;;;;;-148.88;83.64;-17125.47;5033611;28;20104;-73
2023/06/26 09:07:07;;;;;;;10.77;7.13;;;;;;;-148.88;81.11;-17125.47;5033473;28;20021;-72
2023/06/26 09:09:33;;;;;;;11.50;7.30;;;;;;;-148.88;80.66;-17125.47;5033282;28;20054;-73
2023/06/26 09:11:58;;;;;;;8.65;6.45;;;;;;;-148.88;82.08;-17125.47;5033174;28;20017;-73
2023/06/26 09:14:24;;;;;;;12.18;6.97;;;;;;;-148.88;82.66;-17125.47;5033270;28;20033;-72
2023/06/26 09:16:50;;;;;;;10.27;7.15;;;;;;;-148.88;85.59;-17125.47;5033298;28;20025;-73
2023/06/26 09:19:15;;;;;;;9.95;7.38;;;;;;;-148.88;84.68;-17125.47;5033309;28;20028;-73
2023/06/26 09:21:42;;;;;;;10.32;7.13;;;;;;;-148.88;85.07;-17125.47;5033376;28;20032;-73
2023/06/26 09:24:09;;;;;;;10.48;7.40;;;;;;;-148.88;86.37;-17125.47;5033360;28;20040;-73
2023/06/26 09:26:38;;;;;;;10.70;6.28;;;;;;;-148.88;85.42;-17125.47;5034343;28;20021;-73
2023/06/26 09:29:05;;;;;;;10.15;5.75;;;;;;;-148.88;81.06;-17125.47;5017006;28;20044;-73
2023/06/26 09:31:30;;;;;;;10.65;5.53;;;;;;;-148.88;80.72;-17125.47;5035244;28;20032;-73
2023/06/26 09:33:59;;;;;;;10.25;6.47;;;;;;;-148.88;79.63;-17125.47;5034659;28;20021;-73
2023/06/26 09:36:28;;;;;;;12.43;6.22;;;;;;;-148.88;81.57;-17125.47;5033593;28;20017;-73
2023/06/26 09:38:53;;;;;;;8.13;5.93;;;;;;;-148.88;84.70;-17125.47;5033276;28;20044;-73
2023/06/26 09:41:19;;;;;;;14.38;6.53;;;;;;;-148.88;83.99;-17125.47;5033046;28;20025;-73
2023/06/26 09:43:49;;;;;;;9.90;5.80;;;;;;;-148.88;82.34;-17125.47;5032839;28;20033;-73
2023/06/26 09:46:23;;;;;;;9.43;5.78;;;;;;;-148.88;82.44;-17125.47;5032738;28;20064;-73
2023/06/26 09:48:49;;;;;;;8.73;5.85;;;;;;;-148.88;81.80;-17125.47;5032774;28;20388;-73
2023/06/26 09:51:16;;;;;;;13.25;6.88;;;;;;;-148.88;81.82;-17125.47;5015035;28;20052;-73
2023/06/26 09:53:42;;;;;;;8.98;5.65;;;;;;;-148.88;81.51;-17125.47;5032864;28;20112;-73
2023/06/26 09:56:16;;;;;;;11.10;5.90;;;;;;;-148.88;80.01;-17125.47;5014936;28;20068;-74
2023/06/26 09:58:43;;;;;;;11.52;5.95;;;;;;;-148.88;81.25;-17125.47;5033559;28;20504;-76
2023/06/26 10:01:09;;;;;;;13.82;6.40;;;;;;;-148.88;82.87;-17125.47;5033403;28;20064;-72
2023/06/26 10:03:35;;;;;;;12.30;5.95;;;;;;;-148.88;83.34;-17125.47;5033760;28;20017;-73
2023/06/26 10:06:02;;;;;;;8.70;6.18;;;;;;;-148.88;84.58;-17125.47;5016874;28;20392;-73
2023/06/26 10:08:29;;;;;;;9.73;6.03;;;;;;;-148.88;83.56;-17125.47;5018037;28;20040;-74
2023/06/26 10:10:57;;;;;;;11.63;6.53;;;;;;;-148.88;83.99;-17125.47;5018792;28;20025;-73
2023/06/26 10:13:30;;;;;;;10.65;6.50;;;;;;;-148.88;83.81;-17125.47;5020604;28;20107;-73
2023/06/26 10:15:56;;;;;;;10.05;6.22;;;;;;;-148.88;80.80;-17125.47;5037151;28;20029;-74
2023/06/26 10:18:25;;;;;;;10.07;6.30;;;;;;;-148.88;79.16;-17125.47;5036347;28;20472;-74
2023/06/26 10:20:53;;;;;;;11.27;5.97;;;;;;;-148.88;78.25;-17125.47;5018634;28;20021;-73
2023/06/26 10:23:19;;;;;;;10.68;6.40;;;;;;;-148.88;78.65;-17125.47;5036253;28;20064;-73
2023/06/26 10:25:48;;;;;;;11.85;5.47;;;;;;;-148.88;82.89;-17125.47;5036083;28;20022;-73
2023/06/26 10:28:16;;;;;;;7.55;5.22;;;;;;;-148.88;81.69;-17125.47;5036052;28;20021;-73
2023/06/26 10:30:44;;;;;;;9.07;5.07;;;;;;;-148.88;81.97;-17125.47;5036055;28;20029;-73
2023/06/26 10:33:11;;;;;;;7.88;4.90;;;;;;;-148.88;79.72;-17125.47;5018194;28;20488;-73
2023/06/26 10:35:44;;;;;;;10.85;4.82;;;;;;;-148.88;80.02;-17125.47;5035954;28;20095;-74
2023/06/26 10:38:09;;;;;;;7.95;4.80;;;;;;;-148.88;79.98;-17125.47;5036250;28;20049;-73
2023/06/26 10:40:44;;;;;;;10.63;5.20;;;;;;;-148.88;77.36;-17125.47;5019336;28;20068;-74
2023/06/26 10:43:12;;;;;;;10.52;4.85;;;;;;;-148.88;75.78;-17125.47;5037132;28;20450;-74
2023/06/26 10:45:44;;;;;;;8.68;4.68;;;;;;;-148.88;75.14;-17125.47;5038410;28;20017;-73
2023/06/26 10:48:09;;;;;;;7.25;4.35;;;;;;;-148.88;74.55;-17125.47;5037613;28;20017;-74
2023/06/26 10:50:35;;;;;;;10.07;4.57;;;;;;;-148.88;71.41;-17125.47;5036442;28;20018;-73
2023/06/26 10:53:19;;;;;;;7.95;4.28;;;;;;;-148.88;69.21;-17125.47;5036568;28;20112;-74
2023/06/26 10:56:05;;;;;;;7.40;3.40;;;;;;;-148.88;72.80;-17125.47;5036006;28;20144;-73
2023/06/26 10:58:40;;;;;;;5.72;3.22;;;;;;;-148.88;73.45;-17125.47;5035879;28;20034;-73
2023/06/26 11:01:12;;;;;;;5.43;3.25;;;;;;;-148.88;72.55;-17125.47;5035825;28;20579;-74